Time;durP1;ratioP1;P1;durP2;ratioP2;P2;SDS_P1;SDS_P2;PMS_P1;PMS_P2;Temp;Humidity;BMP_temperature;BMP_pressure;BME280_temperature;BME280_humidity;BME280_pressure;Samples;Min_cycle;Max_cycle;Signal;HPM_P1;HPM_P2
2022/03/14 00:01:12;;;;;;;42.70;18.30;;;;;;;-0.77;60.31;100398.10;103560;1302;24212;-26
2022/03/14 00:06:10;;;;;;;48.20;18.70;;;;;;;-0.85;61.51;100394.08;103667;1300;22511;-25
2022/03/14 00:08:38;;;;;;;83.10;22.20;;;;;;;-0.87;61.71;100394.55;103543;1302;24277;-29
2022/03/14 00:11:04;;;;;;;75.60;21.90;;;;;;;-0.88;62.85;100394.98;103655;1300;24169;-29
2022/03/14 00:13:29;;;;;;;54.40;20.40;;;;;;;-0.89;62.50;100395.04;103496;1302;24253;-25
2022/03/14 00:15:56;;;;;;;66.20;18.10;;;;;;;-0.92;62.77;100397.55;103651;1300;24276;-25
2022/03/14 00:18:23;;;;;;;51.00;18.30;;;;;;;-0.96;62.86;100399.89;103694;1299;24292;-29
2022/03/14 00:20:48;;;;;;;59.10;18.40;;;;;;;-1.01;62.76;100397.70;103664;1300;24410;-29
2022/03/14 00:23:17;;;;;;;54.40;19.70;;;;;;;-1.03;62.65;100396.78;103527;1303;22515;-26
2022/03/14 00:25:43;;;;;;;47.20;18.70;;;;;;;-1.04;62.53;100402.17;103670;1298;24217;-26
2022/03/14 00:28:09;;;;;;;50.80;19.40;;;;;;;-1.05;63.09;100404.46;103487;1302;24246;-26
2022/03/14 00:30:34;;;;;;;52.70;18.70;;;;;;;-1.08;63.53;100408.89;103222;1302;25000;-25
2022/03/14 00:33:00;;;;;;;42.00;19.40;;;;;;;-1.11;63.80;100411.05;103505;1300;22636;-30
2022/03/14 00:35:26;;;;;;;53.90;19.90;;;;;;;-1.14;63.48;100407.55;103541;1300;24248;-26
2022/03/14 00:37:52;;;;;;;61.30;20.90;;;;;;;-1.17;64.33;100408.58;103478;1300;24294;-28
2022/03/14 00:40:18;;;;;;;63.30;21.70;;;;;;;-1.21;65.06;100409.38;103554;1300;24417;-28
2022/03/14 00:42:44;;;;;;;82.30;25.00;;;;;;;-1.27;65.05;100407.84;103609;1300;24218;-25
2022/03/14 00:45:10;;;;;;;63.70;20.70;;;;;;;-1.32;65.22;100408.44;103504;1302;24252;-26
2022/03/14 00:47:36;;;;;;;46.90;19.60;;;;;;;-1.37;65.15;100412.66;103607;1300;24274;-26
2022/03/14 00:50:03;;;;;;;71.60;24.00;;;;;;;-1.40;65.29;100413.55;103592;1301;24240;-26
2022/03/14 00:52:28;;;;;;;80.20;23.20;;;;;;;-1.42;65.07;100423.13;103634;1303;24290;-27
2022/03/14 00:54:54;;;;;;;61.40;21.30;;;;;;;-1.42;64.79;100418.59;103544;1300;24398;-26
2022/03/14 00:57:20;;;;;;;52.50;18.60;;;;;;;-1.43;64.51;100419.35;103516;1300;24263;-29
2022/03/14 00:59:48;;;;;;;57.80;19.20;;;;;;;-1.42;64.84;100421.23;103622;1301;24258;-28
2022/03/14 01:02:14;;;;;;;50.80;20.60;;;;;;;-1.44;65.11;100420.95;103554;1303;24286;-25
2022/03/14 01:04:40;;;;;;;40.80;15.90;;;;;;;-1.45;64.79;100420.86;103527;1301;24225;-26
2022/03/14 01:07:05;;;;;;;53.50;20.00;;;;;;;-1.47;64.69;100423.98;103606;1300;24351;-29
2022/03/14 01:09:32;;;;;;;50.00;18.80;;;;;;;-1.51;64.89;100425.81;103486;1303;24179;-26
2022/03/14 01:11:58;;;;;;;45.40;19.50;;;;;;;-1.54;64.86;100428.30;103610;1300;24214;-25
2022/03/14 01:14:25;;;;;;;53.10;18.80;;;;;;;-1.59;65.07;100421.75;103495;1303;24212;-29
2022/03/14 01:16:51;;;;;;;59.30;19.70;;;;;;;-1.61;65.23;100421.87;103562;1300;24321;-30
2022/03/14 01:19:17;;;;;;;46.40;19.20;;;;;;;-1.62;65.66;100424.59;103426;1302;22797;-27
2022/03/14 01:21:43;;;;;;;63.40;28.10;;;;;;;-1.63;66.05;100424.48;103533;1303;24462;-28
2022/03/14 01:24:09;;;;;;;55.00;21.00;;;;;;;-1.69;66.35;100427.27;103539;1303;24246;-25
2022/03/14 01:26:34;;;;;;;74.60;32.40;;;;;;;-1.75;66.22;100431.14;103558;1302;24222;-26
2022/03/14 01:29:02;;;;;;;58.10;21.00;;;;;;;-1.82;66.42;100430.34;103582;1300;24235;-29
2022/03/14 01:31:29;;;;;;;60.00;19.10;;;;;;;-1.87;66.65;100435.36;103624;1301;24330;-29
2022/03/14 01:33:54;;;;;;;45.70;18.20;;;;;;;-1.90;67.33;100433.80;103621;1303;24262;-26
2022/03/14 01:36:20;;;;;;;56.10;19.20;;;;;;;-1.92;67.99;100437.95;103547;1302;24214;-29
2022/03/14 01:38:46;;;;;;;86.90;38.10;;;;;;;-1.95;68.27;100435.84;103554;1300;24266;-26
2022/03/14 01:41:16;;;;;;;60.50;28.30;;;;;;;-1.93;68.25;100434.48;103557;1301;24404;-26
2022/03/14 01:43:42;;;;;;;57.00;21.40;;;;;;;-1.93;68.30;100433.96;103698;1303;24210;-28
2022/03/14 01:46:08;;;;;;;51.40;22.60;;;;;;;-1.96;68.28;100438.89;103561;1303;24214;-29
2022/03/14 01:48:35;;;;;;;51.40;20.80;;;;;;;-1.98;68.53;100432.86;103662;1303;24258;-29
2022/03/14 01:51:01;;;;;;;49.00;24.30;;;;;;;-2.00;68.56;100438.45;103543;1302;24240;-29
2022/03/14 01:53:26;;;;;;;60.60;23.30;;;;;;;-2.03;68.96;100437.77;103560;1300;24438;-25
2022/03/14 01:55:53;;;;;;;46.40;21.50;;;;;;;-2.06;69.37;100441.27;103576;1302;24352;-28
2022/03/14 01:58:18;;;;;;;71.80;28.00;;;;;;;-2.10;69.53;100441.97;103548;1301;22756;-25
2022/03/14 02:00:44;;;;;;;44.60;19.70;;;;;;;-2.10;69.60;100446.39;103518;1303;24259;-27
2022/03/14 02:03:13;;;;;;;52.10;22.30;;;;;;;-2.13;69.99;100449.20;103528;1302;24212;-25
2022/03/14 02:05:38;;;;;;;87.80;36.20;;;;;;;-2.13;70.28;100447.26;103530;1302;24378;-25
2022/03/14 02:08:05;;;;;;;51.40;20.40;;;;;;;-2.10;70.36;100448.50;103564;1300;24660;-26
2022/03/14 02:10:30;;;;;;;82.70;30.60;;;;;;;-2.10;71.01;100448.47;103515;1302;24214;-30
2022/03/14 02:12:56;;;;;;;161.00;37.00;;;;;;;-2.09;71.24;100449.50;103566;1302;24466;-28
2022/03/14 02:15:22;;;;;;;91.00;37.80;;;;;;;-2.10;71.13;100446.74;103576;1301;24304;-27
2022/03/14 02:17:48;;;;;;;83.30;32.90;;;;;;;-2.10;71.00;100447.45;103492;1302;24246;-30
2022/03/14 02:20:14;;;;;;;181.10;40.90;;;;;;;-2.08;71.33;100445.94;103503;1303;24224;-26
2022/03/14 02:22:40;;;;;;;245.50;46.80;;;;;;;-2.07;71.67;100447.80;103576;1302;24245;-27
2022/03/14 02:25:10;;;;;;;310.90;58.60;;;;;;;-2.10;71.66;100450.26;103288;1302;24215;-28
2022/03/14 02:27:38;;;;;;;282.70;52.10;;;;;;;-2.11;72.01;100446.95;103537;1303;24295;-30
2022/03/14 02:30:05;;;;;;;284.30;54.30;;;;;;;-2.11;71.62;100447.68;103508;1303;24319;-27
2022/03/14 02:32:31;;;;;;;120.60;31.20;;;;;;;-2.12;71.97;100449.13;103538;1302;24475;-27
2022/03/14 02:34:57;;;;;;;109.90;28.50;;;;;;;-2.13;72.46;100447.09;103520;1302;24257;-27
2022/03/14 02:37:22;;;;;;;187.00;36.40;;;;;;;-2.14;72.65;100446.45;103557;1303;24260;-30
2022/03/14 02:39:49;;;;;;;66.60;21.20;;;;;;;-2.15;72.44;100450.20;103577;1300;24243;-27
2022/03/14 02:42:14;;;;;;;80.50;23.40;;;;;;;-2.12;72.09;100451.60;103566;1302;24263;-26
2022/03/14 02:44:42;;;;;;;56.70;21.00;;;;;;;-2.09;72.29;100454.40;103508;1302;24276;-30
2022/03/14 02:47:09;;;;;;;55.00;17.80;;;;;;;-2.07;72.56;100456.55;103576;1301;24214;-29
2022/03/14 02:49:34;;;;;;;68.80;20.50;;;;;;;-2.04;72.56;100458.52;103576;1301;24057;-30
2022/03/14 02:52:00;;;;;;;65.80;20.30;;;;;;;-2.03;72.09;100456.34;103476;1300;24453;-27
2022/03/14 02:54:26;;;;;;;62.00;21.20;;;;;;;-2.01;71.64;100457.45;103513;1302;24260;-28
2022/03/14 02:56:53;;;;;;;78.40;22.60;;;;;;;-2.01;71.62;100460.09;103602;1303;24457;-28
2022/03/14 02:59:20;;;;;;;71.50;27.20;;;;;;;-2.01;72.01;100463.08;103566;1300;24196;-30
2022/03/14 03:01:46;;;;;;;54.70;22.50;;;;;;;-1.99;71.91;100464.36;103538;1303;24297;-28
2022/03/14 03:04:12;;;;;;;67.10;24.60;;;;;;;-1.96;71.31;100464.53;103534;1301;24403;-26
2022/03/14 03:06:38;;;;;;;46.00;19.60;;;;;;;-1.95;71.46;100470.39;103558;1301;24221;-26
2022/03/14 03:09:04;;;;;;;52.90;21.60;;;;;;;-1.97;71.33;100467.73;103481;1300;24367;-29
2022/03/14 03:11:31;;;;;;;46.00;20.60;;;;;;;-1.98;71.37;100472.17;103580;1300;22612;-29
2022/03/14 03:13:56;;;;;;;43.80;17.70;;;;;;;-2.00;71.08;100477.56;103548;1302;22554;-29
2022/03/14 03:16:22;;;;;;;43.40;17.60;;;;;;;-2.00;71.18;100483.20;103637;1300;24210;-29
2022/03/14 03:18:48;;;;;;;56.40;18.20;;;;;;;-2.00;71.41;100486.85;103645;1300;24348;-29
2022/03/14 03:21:15;;;;;;;43.40;19.20;;;;;;;-1.98;71.29;100486.76;103570;1300;24225;-29
2022/03/14 03:23:41;;;;;;;42.80;18.20;;;;;;;-1.99;71.15;100489.78;103557;1301;24190;-25
2022/03/14 03:26:07;;;;;;;46.30;17.90;;;;;;;-2.01;70.94;100489.90;103596;1301;24215;-25
2022/03/14 03:28:35;;;;;;;42.70;17.60;;;;;;;-2.04;71.36;100492.01;103555;1303;24316;-25
2022/03/14 03:31:05;;;;;;;41.00;16.90;;;;;;;-2.04;71.00;100492.73;103569;1303;24373;-25
2022/03/14 03:33:31;;;;;;;39.00;16.10;;;;;;;-2.02;70.78;100495.05;103478;1300;24250;-25
2022/03/14 03:35:58;;;;;;;41.30;16.00;;;;;;;-2.00;70.91;100494.05;103594;1300;24460;-29
2022/03/14 03:38:24;;;;;;;39.70;18.80;;;;;;;-1.98;71.09;100495.86;103525;1301;24198;-26
2022/03/14 03:40:50;;;;;;;50.00;18.30;;;;;;;-1.97;70.89;100496.00;103526;1302;24428;-29
2022/03/14 03:43:15;;;;;;;44.30;18.10;;;;;;;-1.95;70.62;100497.95;103591;1303;24290;-25
2022/03/14 03:45:41;;;;;;;50.60;17.50;;;;;;;-1.95;70.18;100497.27;103510;1301;24245;-29
2022/03/14 03:48:07;;;;;;;46.70;18.60;;;;;;;-1.93;70.04;100496.45;103548;1300;24221;-28
2022/03/14 03:50:33;;;;;;;42.60;18.50;;;;;;;-1.92;70.30;100495.86;103548;1302;24382;-26
2022/03/14 03:52:58;;;;;;;61.10;19.50;;;;;;;-1.89;70.43;100494.98;103570;1301;24330;-28
2022/03/14 03:55:24;;;;;;;53.70;19.80;;;;;;;-1.89;70.66;100498.11;103577;1300;24313;-26
2022/03/14 03:57:50;;;;;;;45.90;17.80;;;;;;;-1.91;70.96;100495.81;103543;1300;24674;-25
2022/03/14 04:00:16;;;;;;;85.40;23.60;;;;;;;-1.95;70.93;100493.05;103524;1301;24266;-27
2022/03/14 04:02:44;;;;;;;57.20;20.70;;;;;;;-1.98;71.30;100499.03;103505;1303;24195;-27
2022/03/14 04:05:13;;;;;;;61.10;22.20;;;;;;;-2.01;71.22;100497.98;103594;1303;24270;-27
2022/03/14 04:07:40;;;;;;;61.90;21.20;;;;;;;-2.02;71.51;100496.46;103563;1302;25885;-26
2022/03/14 04:10:06;;;;;;;64.20;20.80;;;;;;;-2.03;71.74;100498.61;103539;1303;24316;-25
2022/03/14 04:12:32;;;;;;;86.40;25.40;;;;;;;-2.05;71.60;100495.90;103153;1300;580724;-27
2022/03/14 04:14:58;;;;;;;67.90;24.00;;;;;;;-2.06;71.51;100497.06;103586;1300;24203;-28
2022/03/14 04:17:25;;;;;;;50.50;19.50;;;;;;;-2.11;71.65;100500.84;103544;1300;24377;-26
2022/03/14 04:19:52;;;;;;;56.90;21.10;;;;;;;-2.12;71.80;100501.42;103519;1302;22843;-29
2022/03/14 04:22:19;;;;;;;76.90;24.20;;;;;;;-2.11;71.61;100504.73;103585;1300;22753;-26
2022/03/14 04:24:45;;;;;;;72.90;23.90;;;;;;;-2.12;71.29;100508.61;103556;1300;24245;-26
2022/03/14 04:27:11;;;;;;;81.80;28.90;;;;;;;-2.12;71.62;100510.34;103530;1300;24240;-29
2022/03/14 04:29:37;;;;;;;113.80;32.10;;;;;;;-2.17;71.96;100509.63;103313;1305;24314;-28
2022/03/14 04:32:04;;;;;;;140.70;36.00;;;;;;;-2.23;71.88;100512.06;103577;1300;22721;-29
2022/03/14 04:34:30;;;;;;;125.30;36.40;;;;;;;-2.27;71.97;100509.30;103608;1300;24238;-25
2022/03/14 04:36:55;;;;;;;113.00;36.30;;;;;;;-2.32;72.21;100509.40;103644;1301;22508;-28
2022/03/14 04:39:21;;;;;;;87.80;30.60;;;;;;;-2.35;72.42;100510.09;103544;1301;24219;-30
2022/03/14 04:41:47;;;;;;;67.70;25.90;;;;;;;-2.37;72.82;100508.29;103550;1300;24255;-26
2022/03/14 04:44:13;;;;;;;58.30;24.60;;;;;;;-2.40;73.11;100509.15;103570;1300;24297;-29
2022/03/14 04:46:39;;;;;;;53.70;20.90;;;;;;;-2.43;73.62;100516.20;103633;1300;24340;-26
2022/03/14 04:49:05;;;;;;;51.20;19.60;;;;;;;-2.47;73.66;100514.45;103509;1302;24345;-26
2022/03/14 04:51:32;;;;;;;63.10;22.80;;;;;;;-2.49;73.50;100518.95;103562;1301;24311;-28
2022/03/14 04:53:58;;;;;;;52.80;20.00;;;;;;;-2.49;73.71;100520.59;103545;1303;24237;-26
2022/03/14 04:56:24;;;;;;;64.10;23.80;;;;;;;-2.49;74.18;100517.38;103577;1300;24365;-26
2022/03/14 04:58:50;;;;;;;67.90;25.60;;;;;;;-2.49;74.39;100519.11;103636;1300;22642;-30
2022/03/14 05:01:19;;;;;;;65.70;24.70;;;;;;;-2.50;74.56;100519.21;103648;1300;24332;-26
2022/03/14 05:03:45;;;;;;;92.70;26.00;;;;;;;-2.51;74.37;100516.45;103594;1300;26182;-30
2022/03/14 05:06:11;;;;;;;67.10;23.70;;;;;;;-2.55;74.72;100518.95;103571;1300;24302;-26
2022/03/14 05:08:37;;;;;;;41.20;19.70;;;;;;;-2.54;74.73;100522.23;103579;1300;24255;-26
2022/03/14 05:11:04;;;;;;;65.60;23.70;;;;;;;-2.53;74.47;100521.68;103606;1301;22507;-26
2022/03/14 05:13:30;;;;;;;51.90;19.80;;;;;;;-2.55;74.75;100523.15;103527;1300;24444;-28
2022/03/14 05:15:56;;;;;;;52.60;19.40;;;;;;;-2.51;74.69;100526.64;103554;1300;24199;-24
2022/03/14 05:18:22;;;;;;;67.10;23.70;;;;;;;-2.48;74.51;100527.69;103592;1300;24294;-26
2022/03/14 05:20:48;;;;;;;60.60;20.10;;;;;;;-2.47;74.38;100530.79;103533;1300;24321;-26
2022/03/14 05:23:14;;;;;;;56.00;19.60;;;;;;;-2.44;74.39;100535.88;103543;1300;24192;-28
2022/03/14 05:25:39;;;;;;;53.60;20.40;;;;;;;-2.41;73.78;100542.73;103521;1300;24358;-29
2022/03/14 05:28:05;;;;;;;39.00;20.00;;;;;;;-2.35;73.76;100546.77;103591;1300;24313;-26
2022/03/14 05:30:31;;;;;;;53.50;21.70;;;;;;;-2.27;73.47;100548.45;103545;1300;24211;-26
2022/03/14 05:32:57;;;;;;;58.40;23.30;;;;;;;-2.20;72.82;100551.16;103506;1301;24255;-26
2022/03/14 05:35:23;;;;;;;45.10;19.70;;;;;;;-2.13;72.10;100554.31;103541;1300;22629;-25
2022/03/14 05:37:48;;;;;;;49.90;21.30;;;;;;;-2.10;72.00;100553.08;103507;1300;24245;-28
2022/03/14 05:40:17;;;;;;;50.00;20.10;;;;;;;-2.08;71.92;100553.67;103553;1303;24282;-26
2022/03/14 05:42:45;;;;;;;47.20;19.50;;;;;;;-2.03;71.58;100561.45;103829;1300;22498;-27
2022/03/14 05:45:12;;;;;;;50.00;21.70;;;;;;;-1.95;71.39;100565.73;103867;1302;24244;-30
2022/03/14 05:47:38;;;;;;;55.40;22.90;;;;;;;-1.90;71.13;100568.42;103645;1300;24348;-27
2022/03/14 05:50:04;;;;;;;53.20;19.40;;;;;;;-1.85;70.98;100567.27;103593;1300;22598;-29
2022/03/14 05:52:30;;;;;;;52.60;20.90;;;;;;;-1.78;71.02;100564.25;103579;1300;24301;-26
2022/03/14 05:54:56;;;;;;;47.90;20.60;;;;;;;-1.71;70.81;100568.38;103566;1300;24298;-26
2022/03/14 05:57:22;;;;;;;55.10;23.50;;;;;;;-1.61;70.63;100573.43;103685;1300;24245;-29
2022/03/14 05:59:48;;;;;;;51.60;19.00;;;;;;;-1.53;70.50;100577.71;103678;1300;24221;-26
2022/03/14 06:02:19;;;;;;;58.60;19.70;;;;;;;-1.48;70.41;100577.73;103579;1300;25124;-30
2022/03/14 06:04:45;;;;;;;52.10;18.70;;;;;;;-1.44;70.55;100578.35;103612;1300;24352;-30
2022/03/14 06:07:11;;;;;;;45.50;20.00;;;;;;;-1.39;70.63;100582.31;103493;1302;24222;-26
2022/03/14 06:09:37;;;;;;;56.40;20.50;;;;;;;-1.31;70.40;100586.73;103582;1300;24258;-26
2022/03/14 06:12:04;;;;;;;50.30;21.30;;;;;;;-1.21;70.33;100590.19;103581;1301;24304;-29
2022/03/14 06:14:29;;;;;;;57.20;21.50;;;;;;;-1.10;70.00;100588.80;103496;1302;24284;-30
2022/03/14 06:16:55;;;;;;;65.40;24.00;;;;;;;-0.99;69.89;100587.82;103543;1300;22907;-29
2022/03/14 06:19:21;;;;;;;48.80;20.00;;;;;;;-0.86;69.60;100584.02;103634;1300;24173;-28
2022/03/14 06:21:47;;;;;;;44.20;19.30;;;;;;;-0.66;69.51;100585.21;103519;1300;24253;-26
2022/03/14 06:24:13;;;;;;;40.00;18.00;;;;;;;-0.43;69.08;100587.98;103501;1301;24346;-27
2022/03/14 06:26:39;;;;;;;55.10;21.10;;;;;;;-0.23;68.46;100585.16;103526;1300;24240;-25
2022/03/14 06:29:05;;;;;;;60.20;18.50;;;;;;;-0.02;67.91;100583.13;103536;1300;24215;-25
2022/03/14 06:31:31;;;;;;;45.80;19.40;;;;;;;0.22;67.26;100585.58;103543;1300;25090;-25
2022/03/14 06:33:57;;;;;;;58.80;25.70;;;;;;;0.45;65.96;100591.22;103551;1300;24218;-29
2022/03/14 06:36:24;;;;;;;42.80;17.30;;;;;;;0.68;65.11;100593.45;103592;1300;24304;-25
2022/03/14 06:38:51;;;;;;;57.80;20.00;;;;;;;0.92;63.06;100594.76;103555;1300;24281;-26
2022/03/14 06:41:18;;;;;;;39.10;16.00;;;;;;;1.08;61.31;100599.30;103576;1300;24302;-29
2022/03/14 06:43:43;;;;;;;41.40;17.30;;;;;;;1.18;60.61;100597.00;103517;1300;24313;-25
2022/03/14 06:46:09;;;;;;;47.60;18.70;;;;;;;1.31;59.89;100600.05;103538;1300;24254;-29
2022/03/14 06:48:40;;;;;;;39.80;16.70;;;;;;;1.41;58.72;100604.74;103513;1302;24430;-25
2022/03/14 06:51:06;;;;;;;40.90;17.60;;;;;;;1.48;57.57;100608.20;103584;1300;24186;-28
2022/03/14 06:53:32;;;;;;;31.80;14.70;;;;;;;1.58;57.50;100612.57;103628;1300;24214;-27
2022/03/14 06:55:58;;;;;;;46.50;19.90;;;;;;;1.69;56.75;100611.75;103565;1300;24255;-28
2022/03/14 06:58:24;;;;;;;39.80;16.40;;;;;;;1.78;56.72;100611.86;103629;1300;24297;-29
2022/03/14 07:00:51;;;;;;;27.20;12.80;;;;;;;1.86;55.53;100614.43;103590;1300;23873;-29
2022/03/14 07:03:16;;;;;;;39.90;16.10;;;;;;;2.01;54.91;100615.80;103523;1300;24297;-29
2022/03/14 07:05:43;;;;;;;39.40;16.90;;;;;;;2.13;54.99;100623.41;103636;1300;24150;-26
2022/03/14 07:08:10;;;;;;;41.90;14.70;;;;;;;2.24;54.87;100618.17;103523;1300;24374;-25
2022/03/14 07:10:36;;;;;;;44.40;17.10;;;;;;;2.40;54.79;100619.01;103548;1300;24245;-26
2022/03/14 07:13:02;;;;;;;45.70;17.80;;;;;;;2.57;53.65;100620.70;103560;1300;24199;-25
2022/03/14 07:15:28;;;;;;;41.60;15.80;;;;;;;2.75;52.38;100623.40;103577;1300;22609;-25
2022/03/14 07:17:55;;;;;;;41.30;15.90;;;;;;;3.02;52.81;100624.19;103652;1301;24297;-25
2022/03/14 07:20:22;;;;;;;34.40;15.00;;;;;;;3.31;52.23;100623.00;103550;1300;24297;-25
2022/03/14 07:22:52;;;;;;;40.50;15.60;;;;;;;3.65;51.45;100626.15;103581;1300;23116;-28
2022/03/14 07:25:19;;;;;;;36.50;17.10;;;;;;;3.97;50.50;100622.15;103633;1300;24333;-24
2022/03/14 07:27:45;;;;;;;33.80;15.00;;;;;;;4.34;50.75;100621.65;103568;1300;24286;-28
2022/03/14 07:30:11;;;;;;;30.40;12.80;;;;;;;4.71;49.31;100621.03;103552;1300;24211;-28
2022/03/14 07:32:37;;;;;;;37.60;13.90;;;;;;;5.02;48.38;100621.80;103584;1300;24300;-28
2022/03/14 07:35:03;;;;;;;32.60;13.30;;;;;;;5.20;47.46;100619.55;103554;1300;24182;-25
2022/03/14 07:37:28;;;;;;;25.50;12.50;;;;;;;5.47;46.92;100625.71;103659;1300;24215;-25
2022/03/14 07:39:55;;;;;;;35.00;15.60;;;;;;;5.79;45.61;100621.88;103580;1300;24283;-28
2022/03/14 07:42:20;;;;;;;73.30;33.50;;;;;;;6.07;46.17;100625.43;103592;1301;24289;-28
2022/03/14 07:44:48;;;;;;;66.80;27.30;;;;;;;6.37;44.41;100624.33;103563;1300;24309;-25
2022/03/14 07:47:14;;;;;;;40.60;16.90;;;;;;;6.72;45.11;100625.56;103483;1301;24239;-28
2022/03/14 07:49:39;;;;;;;33.20;18.00;;;;;;;6.99;43.06;100623.76;103521;1302;24317;-28
2022/03/14 07:52:06;;;;;;;33.00;18.50;;;;;;;7.28;42.72;100626.40;103635;1300;24258;-25
2022/03/14 07:54:32;;;;;;;28.10;14.80;;;;;;;7.63;43.05;100623.05;103592;1300;24173;-25
2022/03/14 07:56:59;;;;;;;36.10;16.50;;;;;;;7.92;41.83;100621.62;103547;1300;24297;-28
2022/03/14 07:59:24;;;;;;;25.60;15.90;;;;;;;8.21;42.40;100614.68;103563;1300;24367;-25
2022/03/14 08:01:50;;;;;;;24.30;12.20;;;;;;;8.49;40.09;100616.63;103494;1300;23678;-25
2022/03/14 08:04:16;;;;;;;36.80;11.60;;;;;;;8.84;40.67;100612.77;103469;1300;24123;-28
2022/03/14 08:06:42;;;;;;;18.20;8.40;;;;;;;9.18;38.86;100608.69;103581;1300;24250;-28
2022/03/14 08:09:09;;;;;;;16.00;9.10;;;;;;;9.41;36.18;100606.39;103577;1300;24343;-25
2022/03/14 08:11:35;;;;;;;9.70;6.20;;;;;;;9.46;32.20;100607.58;103570;1300;22699;-25
2022/03/14 08:14:02;;;;;;;15.00;7.40;;;;;;;9.52;30.07;100609.83;103469;1300;24369;-29
2022/03/14 08:16:28;;;;;;;18.60;8.10;;;;;;;9.63;28.59;100613.20;103678;1300;24278;-25
2022/03/14 08:18:54;;;;;;;13.30;7.30;;;;;;;9.56;28.87;100614.10;103633;1300;24211;-24
2022/03/14 08:21:21;;;;;;;15.00;7.40;;;;;;;9.61;29.50;100620.40;103519;1302;24516;-25
2022/03/14 08:23:47;;;;;;;11.90;7.20;;;;;;;9.61;28.14;100616.24;103554;1300;24221;-28
2022/03/14 08:26:13;;;;;;;10.20;5.40;;;;;;;9.80;29.36;100619.64;103534;1300;24329;-28
2022/03/14 08:28:42;;;;;;;17.20;8.30;;;;;;;9.98;28.07;100618.80;103548;1300;24199;-26
2022/03/14 08:31:09;;;;;;;10.10;7.10;;;;;;;10.13;26.95;100613.31;103550;1300;25294;-26
2022/03/14 08:33:39;;;;;;;8.50;6.20;;;;;;;10.33;27.30;100618.69;103499;1302;23831;-25
2022/03/14 08:36:06;;;;;;;13.50;6.80;;;;;;;10.41;27.90;100618.54;103435;1300;24219;-29
2022/03/14 08:38:32;;;;;;;11.30;6.50;;;;;;;10.65;27.69;100615.95;103447;1302;24345;-25
2022/03/14 08:40:58;;;;;;;20.10;8.40;;;;;;;10.91;27.38;100616.51;103511;1300;24218;-29
2022/03/14 08:43:23;;;;;;;14.70;8.80;;;;;;;11.07;26.73;100617.34;103578;1301;24263;-24
2022/03/14 08:45:49;;;;;;;17.00;8.00;;;;;;;11.11;25.64;100616.43;103487;1302;24252;-25
2022/03/14 08:48:15;;;;;;;15.90;8.50;;;;;;;11.17;25.86;100615.94;103559;1300;24451;-28
2022/03/14 08:50:41;;;;;;;18.50;8.80;;;;;;;11.23;25.74;100618.82;103570;1300;24374;-25
2022/03/14 08:53:08;;;;;;;7.80;5.40;;;;;;;11.36;25.25;100622.40;103613;1300;23878;-26
2022/03/14 08:55:34;;;;;;;17.30;8.50;;;;;;;11.33;25.60;100627.77;103557;1299;24303;-27
2022/03/14 08:58:00;;;;;;;14.00;8.30;;;;;;;11.56;27.44;100626.21;103565;1300;24266;-28
2022/03/14 09:00:27;;;;;;;13.70;8.00;;;;;;;11.98;27.05;100621.63;103559;1300;24243;-24
2022/03/14 09:02:54;;;;;;;10.60;6.90;;;;;;;12.18;26.34;100623.59;103567;1300;24263;-24
2022/03/14 09:05:21;;;;;;;15.50;8.20;;;;;;;12.44;26.32;100619.95;103515;1300;24193;-28
2022/03/14 09:07:47;;;;;;;19.80;7.30;;;;;;;12.53;24.71;100618.42;103549;1300;22508;-28
2022/03/14 09:10:13;;;;;;;8.50;6.20;;;;;;;12.57;22.84;100615.02;103481;1302;24197;-28
2022/03/14 09:12:40;;;;;;;13.20;6.50;;;;;;;12.31;23.35;100618.55;103552;1300;24211;-25
2022/03/14 09:15:07;;;;;;;12.30;8.00;;;;;;;11.91;24.22;100623.56;103556;1300;24255;-25
2022/03/14 09:17:35;;;;;;;10.10;8.00;;;;;;;12.19;23.54;100621.27;103595;1300;24459;-28
2022/03/14 09:20:01;;;;;;;9.10;5.40;;;;;;;11.94;24.99;100628.76;103525;1300;24311;-28
2022/03/14 09:22:28;;;;;;;17.10;8.40;;;;;;;12.19;24.77;100626.29;103534;1300;24219;-25
2022/03/14 09:24:55;;;;;;;12.10;5.90;;;;;;;12.28;24.01;100619.19;103584;1300;24173;-28
2022/03/14 09:27:23;;;;;;;13.00;8.00;;;;;;;12.28;24.67;100620.56;103610;1300;24295;-24
2022/03/14 09:29:50;;;;;;;10.90;7.40;;;;;;;12.44;24.71;100619.08;103603;1300;24385;-24
2022/03/14 09:32:16;;;;;;;14.10;7.40;;;;;;;12.47;24.25;100613.14;103512;1300;24168;-30
2022/03/14 09:34:42;;;;;;;9.30;7.40;;;;;;;12.74;24.47;100614.52;103585;1300;24248;-24
2022/03/14 09:37:08;;;;;;;14.20;7.90;;;;;;;12.89;24.32;100614.36;103559;1300;24439;-25
2022/03/14 09:39:34;;;;;;;11.10;6.80;;;;;;;13.19;24.44;100609.45;103564;1300;24364;-25
2022/03/14 09:42:01;;;;;;;8.30;5.40;;;;;;;13.29;23.04;100605.79;103530;1303;24229;-25
2022/03/14 09:44:28;;;;;;;13.80;6.20;;;;;;;13.36;23.90;100599.70;103569;1300;24151;-24
2022/03/14 09:46:55;;;;;;;10.40;6.90;;;;;;;13.53;23.21;100596.98;103569;1300;24212;-24
2022/03/14 09:49:20;;;;;;;6.80;5.40;;;;;;;13.47;23.31;100598.95;103557;1300;22509;-24
2022/03/14 09:51:46;;;;;;;7.30;5.10;;;;;;;13.42;22.97;100593.27;103558;1300;24211;-27
2022/03/14 09:54:12;;;;;;;27.30;7.60;;;;;;;13.62;22.91;100597.11;103573;1300;24231;-29
2022/03/14 09:56:41;;;;;;;9.30;5.20;;;;;;;13.58;23.46;100595.27;103520;1300;22593;-30
2022/03/14 09:59:10;;;;;;;9.30;7.10;;;;;;;13.65;23.76;100591.88;103602;1300;24365;-26
2022/03/14 10:01:35;;;;;;;11.70;7.90;;;;;;;13.95;23.26;100594.84;103533;1300;24214;-28
2022/03/14 10:04:01;;;;;;;13.20;7.60;;;;;;;13.98;22.43;100590.00;103583;1300;24406;-27
2022/03/14 10:06:27;;;;;;;11.30;6.90;;;;;;;14.01;23.00;100584.07;103566;1300;24229;-27
2022/03/14 10:08:52;;;;;;;18.40;6.40;;;;;;;13.98;22.46;100581.20;103398;1301;22502;-27
2022/03/14 10:11:18;;;;;;;16.00;6.40;;;;;;;13.95;22.35;100576.88;103550;1300;24257;-27
2022/03/14 10:13:44;;;;;;;10.50;6.00;;;;;;;14.06;22.70;100575.67;103479;1302;24344;-24
2022/03/14 10:16:09;;;;;;;8.20;5.50;;;;;;;14.16;22.16;100571.72;103512;1300;24211;-26
2022/03/14 10:18:37;;;;;;;17.90;4.40;;;;;;;14.11;20.96;100568.05;103525;1300;24311;-28
2022/03/14 10:21:06;;;;;;;6.30;5.30;;;;;;;14.10;21.67;100569.78;103505;1300;24293;-27
2022/03/14 10:23:37;;;;;;;7.30;4.70;;;;;;;14.15;21.13;100571.70;103474;1300;24236;-30
2022/03/14 10:26:06;;;;;;;22.30;5.60;;;;;;;14.08;20.92;100572.63;103583;1300;24287;-26
2022/03/14 10:28:33;;;;;;;7.00;4.30;;;;;;;14.02;21.31;100574.77;103577;1300;24345;-30
2022/03/14 10:31:00;;;;;;;7.90;5.10;;;;;;;14.19;22.14;100571.89;103603;1300;24289;-24
2022/03/14 10:33:28;;;;;;;13.20;7.50;;;;;;;14.24;21.44;100573.06;103572;1300;24207;-25
2022/03/14 10:35:55;;;;;;;322.40;124.60;;;;;;;14.56;21.53;100572.52;103535;1300;22862;-24
2022/03/14 10:38:21;;;;;;;69.40;27.00;;;;;;;14.65;21.02;100569.49;103528;1300;25430;-28
2022/03/14 10:40:47;;;;;;;61.30;23.80;;;;;;;14.53;20.42;100569.44;103499;1302;24218;-27
2022/03/14 10:43:22;;;;;;;42.20;22.80;;;;;;;14.63;20.45;100572.72;103591;1300;22549;-24
2022/03/14 10:45:48;;;;;;;29.80;17.80;;;;;;;14.61;20.79;100568.70;103482;1300;24214;-25
2022/03/14 10:48:14;;;;;;;28.10;17.00;;;;;;;14.74;20.51;100570.33;103444;1300;22594;-25
2022/03/14 10:50:41;;;;;;;33.20;19.00;;;;;;;14.66;20.37;100569.42;103565;1300;24278;-27
2022/03/14 10:53:08;;;;;;;62.20;29.40;;;;;;;14.75;20.82;100571.00;103529;1302;24217;-26
2022/03/14 10:55:36;;;;;;;102.40;46.00;;;;;;;14.67;20.89;100573.96;103582;1300;24312;-28
2022/03/14 10:58:08;;;;;;;60.40;31.30;;;;;;;14.78;20.90;100573.98;103491;1300;24453;-24
2022/03/14 11:00:44;;;;;;;58.20;27.70;;;;;;;14.85;20.28;100571.49;103584;1300;22674;-28
2022/03/14 11:03:11;;;;;;;189.20;105.20;;;;;;;14.71;20.58;100572.20;103593;1300;23867;-24